Time;durP1;ratioP1;P1;durP2;ratioP2;P2;SDS_P1;SDS_P2;PMS_P1;PMS_P2;Temp;Humidity;BMP_temperature;BMP_pressure;BME280_temperature;BME280_humidity;BME280_pressure;Samples;Min_cycle;Max_cycle;Signal;HPM_P1;HPM_P2
2022/08/11 04:03:04;;;;;;;5.20;3.27;;;12.10;96.30;;;;;;5025145;23;20505;-78
2022/08/11 04:06:08;;;;;;;3.60;3.07;;;12.00;96.30;;;;;;5019548;28;20419;-78
2022/08/11 04:09:19;;;;;;;5.83;3.27;;;11.80;96.30;;;;;;5032819;28;20770;-78
2022/08/11 04:12:13;;;;;;;5.17;3.27;;;11.70;96.30;;;;;;5013644;28;20432;-79
2022/08/11 04:18:09;;;;;;;8.23;3.43;;;11.70;96.30;;;;;;5014913;28;20384;-79
2022/08/11 04:20:59;;;;;;;8.70;3.50;;;11.80;96.30;;;;;;4955401;28;20928;-77
2022/08/11 04:23:46;;;;;;;4.20;3.47;;;11.80;96.30;;;;;;5028962;28;20411;-77
2022/08/11 04:26:46;;;;;;;3.37;3.07;;;11.80;96.30;;;;;;5032780;28;20427;-78
2022/08/11 04:29:34;;;;;;;5.63;3.60;;;11.80;96.30;;;;;;5032387;28;20410;-78
2022/08/11 04:32:03;;;;;;;5.90;3.23;;;12.00;96.30;;;;;;5032698;28;20999;-77
2022/08/11 04:34:43;;;;;;;9.67;3.10;;;12.80;96.30;;;;;;5032635;28;20407;-78
2022/08/11 04:37:33;;;;;;;3.90;3.30;;;14.10;96.30;;;;;;5013048;28;20400;-78
2022/08/11 04:40:35;;;;;;;7.77;2.80;;;15.30;96.30;;;;;;5014283;28;20458;-78
2022/08/11 04:43:20;;;;;;;8.30;2.60;;;16.60;96.30;;;;;;5032649;28;20391;-78
2022/08/11 04:46:09;;;;;;;4.20;2.50;;;17.60;96.30;;;;;;5032743;28;20411;-79
2022/08/11 05:01:41;;;;;;;4.77;2.97;;;20.30;90.50;;;;;;5032156;28;20500;-78
2022/08/11 05:07:57;;;;;;;3.77;2.40;;;18.80;95.10;;;;;;5032271;28;20777;-80
2022/08/11 05:10:25;;;;;;;12.97;2.90;;;18.00;96.30;;;;;;5016196;28;20815;-77
2022/08/11 05:36:11;;;;;;;4.37;2.83;;;16.40;96.30;;;;;;5012265;28;20762;-78
2022/08/11 05:58:07;;;;;;;9.67;2.80;;;25.00;78.30;;;;;;5031593;28;20422;-82
2022/08/11 06:00:42;;;;;;;2.80;2.50;;;25.90;76.50;;;;;;5031416;28;20470;-79
2022/08/11 06:03:09;;;;;;;6.10;2.17;;;27.20;73.50;;;;;;5030371;28;20423;-79
2022/08/11 06:05:40;;;;;;;5.07;2.30;;;27.50;72.10;;;;;;5031631;28;20997;-81
2022/08/11 06:08:07;;;;;;;7.97;2.43;;;28.30;69.90;;;;;;5031194;28;20442;-79
2022/08/11 06:10:35;;;;;;;3.70;2.20;;;27.80;71.90;;;;;;5014339;28;20482;-79
2022/08/11 06:13:01;;;;;;;2.60;2.13;;;28.10;70.90;;;;;;5011922;28;20411;-79
2022/08/11 06:15:29;;;;;;;3.10;2.47;;;28.00;71.30;;;;;;5011884;28;20423;-79
2022/08/11 06:17:57;;;;;;;4.37;2.70;;;28.20;70.00;;;;;;5009984;28;20511;-79
2022/08/11 06:20:24;;;;;;;5.00;3.10;;;28.60;69.40;;;;;;5011755;28;20517;-79
2022/08/11 06:22:57;;;;;;;7.50;2.40;;;28.80;68.90;;;;;;5010858;28;20819;-80
2022/08/11 06:25:34;;;;;;;3.30;2.10;;;28.70;68.90;;;;;;5012010;28;20384;-79
2022/08/11 06:28:02;;;;;;;6.17;2.10;;;29.30;68.10;;;;;;5011502;28;20871;-82
2022/08/11 06:30:41;;;;;;;4.70;2.23;;;29.90;66.40;;;;;;5011702;28;20430;-79
2022/08/11 06:33:17;;;;;;;4.10;2.30;;;29.40;66.70;;;;;;5010623;28;20415;-79
2022/08/11 06:36:05;;;;;;;9.70;2.10;;;29.40;67.80;;;;;;5011997;28;20662;-79
2022/08/11 06:39:01;;;;;;;2.40;2.15;;;31.00;64.60;;;;;;5011373;28;20188;-79
2022/08/11 06:41:37;;;;;;;4.53;1.80;;;31.00;63.70;;;;;;5028106;28;20562;-77
2022/08/11 06:44:15;;;;;;;2.65;2.25;;;31.00;65.10;;;;;;5035001;28;20159;-79
2022/08/11 06:46:49;;;;;;;5.45;2.45;;;31.20;64.30;;;;;;5035116;28;20164;-79
2022/08/11 06:52:08;;;;;;;2.90;1.95;;;32.00;62.20;;;;;;5034926;28;20279;-78
2022/08/11 06:54:40;;;;;;;8.70;1.88;;;32.10;61.70;;;;;;5034828;28;20171;-76
2022/08/11 07:02:47;;;;;;;7.82;2.45;;;31.10;63.20;;;;;;5034721;28;20534;-76
2022/08/11 07:05:42;;;;;;;10.85;2.13;;;32.00;62.40;;;;;;5034705;28;20164;-79
2022/08/11 07:17:34;;;;;;;3.45;2.00;;;30.50;65.20;;;;;;5034877;28;20203;-76
2022/08/11 07:31:20;;;;;;;6.40;2.00;;;33.60;57.90;;;;;;5034426;28;20241;-78
2022/08/11 07:33:51;;;;;;;1.65;1.40;;;33.50;59.30;;;;;;5032882;28;20178;-78
2022/08/11 07:36:18;;;;;;;3.35;1.80;;;33.70;57.10;;;;;;5034152;28;20198;-78
2022/08/11 07:38:49;;;;;;;4.60;2.08;;;33.50;56.70;;;;;;5033449;28;20233;-78
2022/08/11 07:41:17;;;;;;;3.83;1.73;;;33.30;57.50;;;;;;5021237;28;20219;-78
2022/08/11 07:43:48;;;;;;;2.47;1.60;;;32.90;57.80;;;;;;5012872;28;20172;-80
2022/08/11 07:54:31;;;;;;;7.45;2.05;;;32.10;57.70;;;;;;5013950;28;20248;-80
2022/08/11 07:56:57;;;;;;;2.75;1.90;;;31.60;58.60;;;;;;5013903;28;20208;-81
2022/08/11 08:18:41;;;;;;;3.03;1.80;;;29.50;60.30;;;;;;5032749;28;20761;-77
2022/08/11 08:21:10;;;;;;;3.90;1.70;;;28.30;62.50;;;;;;5033033;28;20523;-77
2022/08/11 08:23:38;;;;;;;4.83;1.60;;;28.80;62.00;;;;;;5033283;28;20529;-79
2022/08/11 08:28:52;;;;;;;3.47;1.73;;;28.00;62.50;;;;;;5033029;28;20524;-77
2022/08/11 08:31:18;;;;;;;1.80;1.70;;;27.50;62.50;;;;;;5031603;28;20438;-77
2022/08/11 08:33:44;;;;;;;4.37;1.70;;;26.80;63.50;;;;;;5032928;28;20421;-77
2022/08/11 08:36:11;;;;;;;3.97;1.70;;;25.80;66.20;;;;;;5032982;28;20433;-77
2022/08/11 08:38:51;;;;;;;1.97;1.50;;;26.60;64.80;;;;;;5032341;28;20930;-79
2022/08/11 08:41:28;;;;;;;5.90;2.77;;;27.00;63.40;;;;;;5019530;28;20992;-77
2022/08/11 08:43:58;;;;;;;3.80;1.77;;;27.50;62.80;;;;;;5012097;28;20817;-77
2022/08/11 08:46:29;;;;;;;3.33;1.70;;;28.00;62.60;;;;;;5011775;28;20422;-77
2022/08/11 08:48:58;;;;;;;2.23;1.60;;;27.80;63.10;;;;;;5012405;28;20765;-77
2022/08/11 08:51:34;;;;;;;7.13;2.23;;;27.00;64.10;;;;;;5012867;28;20434;-77
2022/08/11 08:54:04;;;;;;;11.63;2.20;;;26.30;65.70;;;;;;5011651;28;20419;-77
2022/08/11 08:56:33;;;;;;;3.37;1.73;;;26.60;65.20;;;;;;5012727;28;20408;-77
2022/08/11 08:59:00;;;;;;;1.60;1.50;;;26.90;64.70;;;;;;5012271;28;20447;-77
2022/08/11 09:01:30;;;;;;;2.17;1.40;;;27.50;63.70;;;;;;5011951;28;20501;-76
2022/08/11 09:03:56;;;;;;;4.03;1.67;;;27.30;63.20;;;;;;5012630;28;20461;-77
2022/08/11 09:06:22;;;;;;;3.37;2.00;;;27.20;64.40;;;;;;5012622;28;20403;-78
2022/08/11 09:08:48;;;;;;;1.40;1.30;;;27.60;63.10;;;;;;5012274;28;20179;-80
2022/08/11 09:14:00;;;;;;;3.20;1.67;;;27.90;63.30;;;;;;5032399;28;20436;-77
2022/08/11 09:16:26;;;;;;;2.73;1.90;;;28.60;60.70;;;;;;5032236;28;20497;-76
2022/08/11 09:18:52;;;;;;;4.43;1.63;;;28.50;61.00;;;;;;5031590;28;22374;-77
2022/08/11 09:21:21;;;;;;;2.13;1.53;;;27.70;62.10;;;;;;5032269;28;20227;-77
2022/08/11 09:29:20;;;;;;;1.73;1.47;;;27.90;62.10;;;;;;5031697;28;20436;-76
2022/08/11 09:31:46;;;;;;;8.53;2.23;;;27.80;63.30;;;;;;5032044;28;20430;-76
2022/08/11 09:34:13;;;;;;;2.10;1.70;;;27.60;62.90;;;;;;5032035;28;20504;-76
2022/08/11 09:42:13;;;;;;;3.80;2.47;;;27.60;62.90;;;;;;5012523;28;20501;-77
2022/08/11 09:44:49;;;;;;;5.10;1.60;;;26.90;64.40;;;;;;5012477;28;20887;-77
2022/08/11 09:47:27;;;;;;;9.03;1.80;;;27.70;63.80;;;;;;5012342;28;20451;-77
2022/08/11 09:50:01;;;;;;;3.07;1.63;;;28.20;61.50;;;;;;5011561;28;20427;-76
2022/08/11 09:52:29;;;;;;;4.20;1.80;;;27.70;63.20;;;;;;5012204;28;20918;-75
2022/08/11 09:54:55;;;;;;;2.60;1.80;;;27.30;63.10;;;;;;5012073;28;20983;-76
2022/08/11 10:00:08;;;;;;;6.60;1.87;;;28.00;62.60;;;;;;5011603;28;20242;-77
2022/08/11 10:02:40;;;;;;;1.87;1.53;;;28.00;62.60;;;;;;5012035;28;20927;-77
2022/08/11 10:07:52;;;;;;;3.37;1.63;;;27.70;62.80;;;;;;5011790;28;20949;-77
2022/08/11 10:10:22;;;;;;;3.87;1.57;;;27.80;62.40;;;;;;5024331;28;20458;-79
2022/08/11 10:13:15;;;;;;;2.40;1.30;;;27.30;61.80;;;;;;5033691;28;20425;-76
2022/08/11 10:15:45;;;;;;;2.80;1.63;;;27.00;63.30;;;;;;5029122;28;20433;-79
2022/08/11 10:34:46;;;;;;;7.13;1.80;;;27.40;63.00;;;;;;4997743;28;20450;-78
2022/08/11 10:37:12;;;;;;;4.47;1.50;;;27.60;62.90;;;;;;4997478;28;20419;-79
2022/08/11 10:39:39;;;;;;;2.60;1.60;;;27.60;61.80;;;;;;4978890;28;20455;-79
2022/08/11 10:44:52;;;;;;;2.60;1.43;;;27.60;62.40;;;;;;5017057;28;20409;-78
2022/08/11 10:47:37;;;;;;;9.10;1.73;;;27.60;62.20;;;;;;5016897;28;20895;-79
2022/08/11 10:58:49;;;;;;;6.03;1.70;;;27.10;64.00;;;;;;5016168;28;20414;-79
2022/08/11 11:01:28;;;;;;;5.90;1.57;;;27.60;62.70;;;;;;5016653;28;20470;-79
2022/08/11 11:03:59;;;;;;;2.87;1.60;;;28.10;62.80;;;;;;5016354;28;20494;-79
2022/08/11 11:06:52;;;;;;;3.27;1.80;;;27.70;61.90;;;;;;5016350;28;20407;-78
2022/08/11 11:09:43;;;;;;;2.13;1.80;;;27.40;62.90;;;;;;5009590;28;20919;-79
2022/08/11 11:17:56;;;;;;;4.23;1.87;;;27.30;62.70;;;;;;4996806;28;20411;-79
2022/08/11 11:20:32;;;;;;;3.20;1.83;;;27.60;62.70;;;;;;4978922;28;20459;-79
2022/08/11 11:23:22;;;;;;;2.17;1.60;;;27.70;62.40;;;;;;4996671;28;20494;-79
2022/08/11 11:26:12;;;;;;;4.40;2.03;;;27.90;62.10;;;;;;4995906;28;20413;-79
2022/08/11 11:29:04;;;;;;;6.73;2.20;;;27.50;63.00;;;;;;4996069;28;20407;-79
2022/08/11 11:31:56;;;;;;;2.70;1.80;;;27.80;63.20;;;;;;4996549;28;20432;-79
2022/08/11 11:34:41;;;;;;;2.40;1.57;;;27.30;64.80;;;;;;4996278;28;20415;-79
2022/08/11 11:37:08;;;;;;;3.90;1.63;;;27.60;62.30;;;;;;4978827;28;20487;-79
2022/08/11 11:39:35;;;;;;;2.40;1.80;;;27.50;63.00;;;;;;4995706;28;20459;-79
2022/08/11 11:42:06;;;;;;;5.20;1.80;;;27.80;62.90;;;;;;5014663;28;20603;-79
2022/08/11 11:44:34;;;;;;;4.20;1.90;;;28.10;62.30;;;;;;5015849;28;20878;-79
2022/08/11 11:47:00;;;;;;;3.70;1.70;;;28.50;61.50;;;;;;5016028;28;20408;-78
2022/08/11 11:49:31;;;;;;;3.57;1.70;;;28.20;61.20;;;;;;5013488;28;20415;-78
2022/08/11 11:51:58;;;;;;;3.40;1.80;;;27.90;61.80;;;;;;5013868;28;20840;-77
2022/08/11 11:54:27;;;;;;;8.03;2.03;;;27.80;62.50;;;;;;5013876;28;20469;-77
2022/08/11 11:56:54;;;;;;;1.80;1.60;;;26.90;62.80;;;;;;5013895;28;20433;-77
2022/08/11 12:02:13;;;;;;;4.13;1.70;;;27.10;62.40;;;;;;5013816;28;20571;-77
2022/08/11 12:04:47;;;;;;;4.93;1.77;;;27.60;61.90;;;;;;4996169;28;20925;-77
2022/08/11 12:09:57;;;;;;;4.27;1.70;;;28.00;61.40;;;;;;5002098;28;20458;-77
2022/08/11 12:15:10;;;;;;;4.40;1.80;;;28.20;61.70;;;;;;4994086;28;20915;-77
2022/08/11 12:17:36;;;;;;;6.90;1.60;;;28.20;60.60;;;;;;4976571;28;20420;-77
2022/08/11 12:20:03;;;;;;;3.00;1.80;;;28.10;60.00;;;;;;4993225;28;20683;-77
2022/08/11 12:27:58;;;;;;;4.23;1.60;;;28.50;59.70;;;;;;4993374;28;20395;-76
2022/08/11 12:30:23;;;;;;;3.27;1.50;;;27.60;59.80;;;;;;4993659;28;20773;-77
2022/08/11 12:32:49;;;;;;;5.37;1.60;;;27.40;60.30;;;;;;4993562;28;20235;-77
2022/08/11 12:35:15;;;;;;;3.00;1.77;;;27.30;59.70;;;;;;4993004;28;20581;-78
2022/08/11 12:37:50;;;;;;;1.57;1.30;;;27.40;58.40;;;;;;4993124;28;20192;-78
2022/08/11 12:46:19;;;;;;;2.77;1.57;;;28.00;58.30;;;;;;5013097;28;20446;-78
2022/08/11 12:54:38;;;;;;;2.43;1.70;;;27.60;58.50;;;;;;5012872;28;20488;-79
2022/08/11 13:05:31;;;;;;;4.23;1.37;;;28.40;57.50;;;;;;5012765;28;20426;-79
2022/08/11 13:08:02;;;;;;;5.80;1.43;;;28.30;57.10;;;;;;5012129;28;20406;-77
2022/08/11 13:13:17;;;;;;;3.20;1.43;;;27.30;57.60;;;;;;4993319;28;20395;-77
2022/08/11 13:15:44;;;;;;;4.03;1.33;;;27.40;58.60;;;;;;4992928;28;20412;-79
2022/08/11 13:18:10;;;;;;;4.40;1.30;;;27.40;58.40;;;;;;4992298;28;20452;-77
2022/08/11 13:20:36;;;;;;;4.40;1.00;;;27.80;58.60;;;;;;4992729;28;20463;-77
2022/08/11 13:23:02;;;;;;;2.90;1.33;;;27.90;58.30;;;;;;4992726;28;20485;-77
2022/08/11 13:25:31;;;;;;;3.13;1.40;;;27.60;58.30;;;;;;4992817;28;20165;-77
2022/08/11 13:27:58;;;;;;;6.27;1.33;;;27.70;58.50;;;;;;4992292;28;20404;-77
2022/08/11 13:33:12;;;;;;;6.30;2.03;;;27.50;57.60;;;;;;4992750;28;20401;-77
2022/08/11 13:35:39;;;;;;;1.70;1.20;;;27.50;57.70;;;;;;4992696;28;20413;-77
2022/08/11 13:38:04;;;;;;;5.60;1.50;;;27.20;58.10;;;;;;4992496;28;20883;-77
2022/08/11 13:40:31;;;;;;;4.53;1.30;;;27.30;57.60;;;;;;4998448;28;20512;-76
2022/08/11 13:42:58;;;;;;;4.63;1.10;;;26.90;57.70;;;;;;5012306;28;20195;-77
2022/08/11 13:45:25;;;;;;;16.23;1.20;;;27.10;58.50;;;;;;5012179;28;20828;-77
2022/08/11 13:47:58;;;;;;;2.90;1.30;;;27.00;58.10;;;;;;5013845;28;20419;-77
2022/08/11 13:51:29;;;;;;;3.00;1.23;;;27.50;58.10;;;;;;5016093;28;20411;-78
2022/08/11 13:53:14;;;;;;;3.97;1.20;;;28.00;57.00;;;;;;5016104;28;20907;-77
2022/08/11 13:55:40;;;;;;;3.93;1.30;;;27.30;57.30;;;;;;4998466;28;20442;-77
2022/08/11 13:58:09;;;;;;;1.50;1.27;;;27.40;57.10;;;;;;5015452;28;20911;-78
2022/08/11 14:00:35;;;;;;;7.53;1.20;;;27.20;56.80;;;;;;5015809;28;20802;-77
2022/08/11 14:03:03;;;;;;;2.07;1.20;;;27.40;56.00;;;;;;5016075;28;20405;-77
2022/08/11 14:05:36;;;;;;;2.73;0.90;;;27.50;56.00;;;;;;5015873;28;20538;-77
2022/08/11 14:08:06;;;;;;;2.50;1.00;;;27.10;55.80;;;;;;5015505;28;20431;-77
2022/08/11 14:10:33;;;;;;;7.87;1.30;;;27.20;55.80;;;;;;4999833;28;20956;-77
2022/08/11 14:15:48;;;;;;;2.17;1.30;;;26.80;55.30;;;;;;4996151;28;20415;-77
2022/08/11 14:18:28;;;;;;;7.13;1.10;;;27.00;55.70;;;;;;4995420;28;20412;-77
2022/08/11 14:23:43;;;;;;;1.27;1.17;;;26.90;55.70;;;;;;4996443;28;20721;-77
2022/08/11 14:26:28;;;;;;;1.90;1.13;;;27.00;57.10;;;;;;4995928;28;20432;-78
2022/08/11 14:29:03;;;;;;;1.83;1.30;;;27.40;56.20;;;;;;4995432;28;20380;-77
2022/08/11 14:31:30;;;;;;;3.40;1.40;;;27.30;56.30;;;;;;4995880;28;20411;-77
2022/08/11 14:34:01;;;;;;;3.40;1.10;;;27.30;55.70;;;;;;4995716;28;20422;-78
2022/08/11 14:36:36;;;;;;;2.67;1.17;;;27.80;55.70;;;;;;4995901;28;20385;-77
2022/08/11 14:39:13;;;;;;;4.57;1.40;;;27.90;55.00;;;;;;4995197;28;20427;-78
2022/08/11 14:47:13;;;;;;;3.13;1.00;;;27.20;56.10;;;;;;5015609;28;20474;-77
2022/08/11 14:49:41;;;;;;;5.60;1.07;;;27.20;56.10;;;;;;5014523;28;20409;-77
2022/08/11 14:52:14;;;;;;;1.50;1.00;;;27.50;55.80;;;;;;5015088;28;20435;-77
2022/08/11 14:57:27;;;;;;;6.53;1.03;;;27.70;55.00;;;;;;5015356;28;20491;-78
2022/08/11 14:59:55;;;;;;;2.20;1.33;;;28.00;55.20;;;;;;5013245;28;20461;-77
2022/08/11 15:05:06;;;;;;;6.63;1.40;;;27.80;55.10;;;;;;5015007;28;20763;-77
2022/08/11 15:07:32;;;;;;;2.90;1.13;;;27.30;56.50;;;;;;5014857;28;20420;-76
2022/08/11 15:10:00;;;;;;;2.03;1.50;;;27.60;55.80;;;;;;5003064;28;20478;-77
2022/08/11 15:12:27;;;;;;;5.60;1.10;;;27.70;54.10;;;;;;4995190;28;20279;-77
2022/08/11 15:17:39;;;;;;;2.53;1.10;;;27.60;53.90;;;;;;4995017;28;20443;-76
2022/08/11 15:25:44;;;;;;;5.10;1.33;;;27.50;53.90;;;;;;4994999;28;20933;-77
2022/08/11 15:39:23;;;;;;;4.10;1.00;;;27.20;54.10;;;;;;4994359;28;20505;-77
2022/08/11 15:47:32;;;;;;;10.23;1.30;;;27.70;54.60;;;;;;5014193;28;20898;-77
2022/08/11 15:50:00;;;;;;;3.37;1.00;;;27.40;55.10;;;;;;5013499;28;20841;-77
2022/08/11 15:52:30;;;;;;;3.33;1.13;;;27.10;54.70;;;;;;5013970;28;20517;-77
2022/08/11 15:55:00;;;;;;;4.30;1.13;;;27.00;54.40;;;;;;5013957;28;21071;-77
2022/08/11 16:05:44;;;;;;;3.00;1.07;;;27.00;54.80;;;;;;5013987;28;20425;-78
2022/08/11 16:08:13;;;;;;;4.70;1.07;;;27.40;55.20;;;;;;5013215;28;20411;-77
2022/08/11 16:10:39;;;;;;;1.43;1.10;;;27.50;54.50;;;;;;4996661;28;20440;-77
2022/08/11 16:18:48;;;;;;;2.00;1.30;;;27.00;55.50;;;;;;4993841;28;20415;-77
2022/08/11 16:39:38;;;;;;;1.80;1.30;;;26.30;57.00;;;;;;5018307;28;20462;-79
2022/08/11 16:47:34;;;;;;;1.53;1.43;;;25.90;58.20;;;;;;5035379;28;20461;-79
2022/08/11 16:50:01;;;;;;;2.60;1.10;;;26.00;58.60;;;;;;5033185;28;20414;-79
2022/08/11 16:52:26;;;;;;;4.47;1.70;;;25.90;58.70;;;;;;5035158;28;20717;-79
2022/08/11 16:54:52;;;;;;;1.50;1.33;;;25.80;58.80;;;;;;5034642;28;20402;-78
2022/08/11 17:00:11;;;;;;;4.60;1.30;;;25.50;59.80;;;;;;5034111;28;20287;-79
2022/08/11 17:13:56;;;;;;;1.30;1.20;;;25.40;60.30;;;;;;5035011;28;20496;-79
2022/08/11 17:16:30;;;;;;;1.87;1.20;;;25.20;60.40;;;;;;5034627;28;20909;-79
2022/08/11 17:19:02;;;;;;;1.60;1.50;;;25.10;60.90;;;;;;5034678;28;20417;-79
2022/08/11 17:21:35;;;;;;;1.30;1.20;;;25.10;61.40;;;;;;5035627;28;20464;-79
2022/08/11 17:24:05;;;;;;;4.23;1.70;;;24.90;61.20;;;;;;5036304;28;20450;-79
2022/08/11 17:26:55;;;;;;;4.20;1.60;;;24.80;61.60;;;;;;5036375;28;20964;-79
2022/08/11 17:29:34;;;;;;;7.00;1.93;;;24.80;61.20;;;;;;5034815;28;20434;-79
2022/08/11 17:37:35;;;;;;;2.23;1.67;;;24.50;61.50;;;;;;5032354;28;20406;-77
2022/08/11 17:40:08;;;;;;;3.50;1.87;;;24.40;61.20;;;;;;5031363;28;20454;-77
2022/08/11 17:51:01;;;;;;;2.47;1.43;;;23.90;63.40;;;;;;5032231;28;20783;-76
2022/08/11 18:01:48;;;;;;;2.23;1.37;;;23.50;64.60;;;;;;5031763;28;20808;-77
2022/08/11 18:04:14;;;;;;;2.37;1.67;;;23.30;64.80;;;;;;5030602;28;20421;-77
2022/08/11 18:06:41;;;;;;;1.60;1.40;;;23.20;65.20;;;;;;5031884;28;20489;-77
